createdAt,value
2018-12-21T00:01:09.046Z,133.03
2018-12-21T00:03:39.128Z,139.23
2018-12-21T00:06:07.944Z,133.47
2018-12-21T00:08:37.192Z,131.60
2018-12-21T00:11:05.864Z,126.70
2018-12-21T00:13:35.220Z,119.50
2018-12-21T00:16:04.190Z,128.60
2018-12-21T00:18:33.444Z,129.30
2018-12-21T00:21:02.192Z,126.70
2018-12-21T00:23:31.591Z,131.83
2018-12-21T00:26:01.056Z,127.00
2018-12-21T00:28:29.699Z,125.27
2018-12-21T00:31:03.635Z,120.43
2018-12-21T00:33:37.577Z,123.63
2018-12-21T00:36:11.502Z,123.67
2018-12-21T00:38:45.387Z,121.53
2018-12-21T00:41:14.046Z,117.03
2018-12-21T00:43:48.361Z,127.97
2018-12-21T00:46:24.453Z,117.13
2018-12-21T00:48:53.934Z,129.63
2018-12-21T00:51:30.005Z,119.80
2018-12-21T00:53:53.850Z,124.53
2018-12-21T00:56:23.174Z,120.33
2018-12-21T00:58:51.801Z,124.57
2018-12-21T01:01:21.697Z,132.73
2018-12-21T01:03:50.327Z,136.17
2018-12-21T01:06:19.097Z,124.33
2018-12-21T01:08:48.217Z,150.47
2018-12-21T01:11:17.075Z,125.77
2018-12-21T01:13:45.729Z,123.63
2018-12-21T01:16:21.701Z,130.73
2018-12-21T01:18:50.483Z,125.70
2018-12-21T01:21:19.125Z,131.60
2018-12-21T01:23:48.014Z,122.67
2018-12-21T01:26:16.670Z,132.97
2018-12-21T01:28:46.280Z,133.67
2018-12-21T01:31:15.607Z,136.10
2018-12-21T01:33:44.253Z,120.97
2018-12-21T01:36:13.113Z,122.27
2018-12-21T01:38:41.795Z,110.90
2018-12-21T01:41:10.935Z,133.20
2018-12-21T01:43:40.474Z,129.57
2018-12-21T01:46:09.334Z,119.47
2018-12-21T01:48:38.093Z,124.50
2018-12-21T01:51:06.891Z,125.10
2018-12-21T01:53:36.329Z,129.10
2018-12-21T01:56:05.218Z,119.27
2018-12-21T01:58:33.905Z,130.30
2018-12-21T02:01:02.822Z,131.87
2018-12-21T02:03:31.611Z,122.57
2018-12-21T02:06:00.271Z,128.70
2018-12-21T02:08:29.356Z,128.23
2018-12-21T02:10:58.013Z,132.50
2018-12-21T02:13:26.657Z,116.33
2018-12-21T02:15:56.232Z,119.33
2018-12-21T02:18:25.424Z,111.33
2018-12-21T02:20:54.115Z,124.30
2018-12-21T02:23:22.802Z,119.53
2018-12-21T02:25:51.430Z,115.73
2018-12-21T02:28:21.097Z,126.17
2018-12-21T02:30:50.631Z,119.50
2018-12-21T02:33:19.248Z,126.50
2018-12-21T02:35:47.952Z,111.77
2018-12-21T02:38:16.790Z,110.00
2018-12-21T02:40:46.585Z,106.20
2018-12-21T02:43:15.344Z,133.93
2018-12-21T02:45:43.979Z,119.97
2018-12-21T02:48:13.336Z,116.27
2018-12-21T02:50:42.111Z,112.77
2018-12-21T02:53:10.889Z,114.67
2018-12-21T02:55:39.570Z,119.07
2018-12-21T02:58:08.173Z,116.30
2018-12-21T03:00:37.015Z,109.17
2018-12-21T03:03:05.865Z,106.07
2018-12-21T03:05:34.671Z,106.90
2018-12-21T03:08:03.363Z,115.87
2018-12-21T03:10:32.148Z,116.83
2018-12-21T03:13:00.827Z,121.13
2018-12-21T03:15:29.669Z,118.33
2018-12-21T03:17:59.024Z,112.43
2018-12-21T03:20:28.163Z,120.40
2018-12-21T03:22:57.447Z,122.60
2018-12-21T03:25:26.276Z,117.43
2018-12-21T03:27:55.167Z,109.63
2018-12-21T03:30:23.937Z,112.50
2018-12-21T03:32:52.890Z,112.53
2018-12-21T03:35:21.758Z,117.83
2018-12-21T03:37:50.463Z,107.53
2018-12-21T03:40:19.213Z,107.80
2018-12-21T03:42:48.097Z,111.80
2018-12-21T03:45:16.838Z,100.43
2018-12-21T03:47:45.693Z,103.80
2018-12-21T03:50:14.524Z,102.60
2018-12-21T03:52:43.197Z,100.77
2018-12-21T03:55:12.009Z,100.47
2018-12-21T03:57:40.648Z,105.20
2018-12-21T04:00:09.696Z,107.70
2018-12-21T04:02:38.430Z,102.87
2018-12-21T04:05:07.107Z,101.17
2018-12-21T04:07:36.311Z,119.03
2018-12-21T04:10:05.871Z,107.83
2018-12-21T04:12:35.182Z,108.43
2018-12-21T04:15:11.923Z,109.33
2018-12-21T04:17:40.594Z,106.83
2018-12-21T04:20:09.449Z,105.67
2018-12-21T04:22:38.062Z,106.20
2018-12-21T04:25:06.936Z,101.27
2018-12-21T04:27:36.264Z,104.33
2018-12-21T04:30:05.296Z,98.50
2018-12-21T04:32:34.850Z,101.23
2018-12-21T04:35:03.720Z,98.33
2018-12-21T04:37:33.247Z,94.33
2018-12-21T04:40:01.912Z,101.33
2018-12-21T04:42:30.532Z,102.17
2018-12-21T04:44:59.425Z,108.27
2018-12-21T04:47:28.118Z,102.70
2018-12-21T04:49:56.818Z,110.03
2018-12-21T04:52:25.520Z,109.40
2018-12-21T04:54:54.795Z,100.43
2018-12-21T04:57:23.611Z,107.03
2018-12-21T05:00:06.840Z,99.37
2018-12-21T05:02:36.224Z,92.23
2018-12-21T05:05:05.297Z,109.50
2018-12-21T05:07:34.056Z,107.83
2018-12-21T05:10:02.816Z,104.43
2018-12-21T05:12:32.066Z,103.20
2018-12-21T05:15:01.433Z,102.50
2018-12-21T05:17:30.234Z,102.03
2018-12-21T05:19:59.579Z,108.10
2018-12-21T05:22:28.400Z,110.10
2018-12-21T05:24:57.085Z,106.83
2018-12-21T05:27:26.441Z,114.10
2018-12-21T05:29:55.253Z,107.47
2018-12-21T05:32:24.121Z,109.23
2018-12-21T05:34:52.843Z,99.17
2018-12-21T05:37:21.570Z,101.20
2018-12-21T05:39:50.317Z,106.83
2018-12-21T05:42:18.980Z,102.80
2018-12-21T05:44:47.757Z,98.13
2018-12-21T05:47:16.443Z,103.83
2018-12-21T05:49:45.062Z,110.90
2018-12-21T05:52:13.879Z,107.13
2018-12-21T05:54:42.635Z,106.13
2018-12-21T05:57:11.435Z,108.63
2018-12-21T05:59:40.263Z,96.53
2018-12-21T06:02:09.645Z,103.97
2018-12-21T06:04:38.311Z,110.33
2018-12-21T06:07:07.018Z,106.47
2018-12-21T06:09:35.867Z,102.10
2018-12-21T06:12:04.551Z,111.60
2018-12-21T06:14:33.205Z,103.80
2018-12-21T06:17:01.903Z,104.23
2018-12-21T06:19:31.333Z,107.50
2018-12-21T06:21:59.993Z,102.07
2018-12-21T06:24:28.625Z,103.27
2018-12-21T06:26:57.247Z,102.80
2018-12-21T06:29:25.982Z,108.80
2018-12-21T06:31:54.933Z,111.83
2018-12-21T06:34:23.597Z,109.20
2018-12-21T06:36:52.982Z,102.13
2018-12-21T06:39:21.687Z,91.73
2018-12-21T06:41:50.415Z,98.33
2018-12-21T06:44:19.080Z,96.57
2018-12-21T06:46:47.684Z,102.63
2018-12-21T06:49:17.096Z,101.23
2018-12-21T06:51:46.334Z,89.43
2018-12-21T06:54:15.027Z,98.60
2018-12-21T06:56:43.622Z,91.50
2018-12-21T06:59:12.231Z,100.87
2018-12-21T07:01:41.035Z,108.90
2018-12-21T07:04:10.343Z,98.90
2018-12-21T07:06:39.031Z,101.73
2018-12-21T07:09:08.330Z,104.53
2018-12-21T07:11:36.968Z,93.97
2018-12-21T07:14:05.888Z,96.37
2018-12-21T07:16:34.541Z,95.93
2018-12-21T07:19:04.077Z,91.97
2018-12-21T07:21:32.953Z,94.50
2018-12-21T07:24:02.303Z,100.57
2018-12-21T07:26:31.226Z,101.10
2018-12-21T07:29:00.756Z,104.80
2018-12-21T07:31:29.754Z,95.47
2018-12-21T07:33:59.462Z,109.63
2018-12-21T07:36:29.530Z,110.17
2018-12-21T07:38:58.174Z,105.63
2018-12-21T07:41:27.542Z,94.37
2018-12-21T07:43:56.258Z,99.63
2018-12-21T07:46:25.068Z,116.80
2018-12-21T07:48:54.018Z,103.77
2018-12-21T07:51:22.793Z,109.30
2018-12-21T07:53:51.423Z,109.00
2018-12-21T07:56:20.096Z,107.00
2018-12-21T07:58:56.921Z,98.03
2018-12-21T08:01:19.844Z,107.60
2018-12-21T08:03:48.728Z,92.90
2018-12-21T08:06:17.928Z,97.83
2018-12-21T08:08:47.327Z,85.97
2018-12-21T08:11:16.515Z,101.03
2018-12-21T08:13:45.701Z,90.33
2018-12-21T08:16:14.368Z,95.50
2018-12-21T08:18:43.047Z,97.20
2018-12-21T08:21:11.936Z,83.63
2018-12-21T08:23:44.230Z,88.70
2018-12-21T08:26:11.946Z,88.20
2018-12-21T08:28:40.647Z,100.37
2018-12-21T08:31:11.218Z,94.67
2018-12-21T08:33:39.990Z,99.90
2018-12-21T08:36:08.585Z,95.63
2018-12-21T08:38:37.416Z,96.60
2018-12-21T08:41:06.140Z,89.97
2018-12-21T08:43:35.451Z,87.13
2018-12-21T08:46:04.186Z,74.47
2018-12-21T08:48:32.825Z,76.57
2018-12-21T08:51:01.680Z,86.43
2018-12-21T08:53:30.514Z,86.90
2018-12-21T08:55:59.179Z,78.00
2018-12-21T08:58:28.640Z,77.43
2018-12-21T09:00:58.045Z,80.27
2018-12-21T09:03:27.255Z,77.90
2018-12-21T09:05:56.454Z,69.57
2018-12-21T09:08:25.582Z,75.23
2018-12-21T09:10:54.382Z,76.27
2018-12-21T09:13:23.189Z,79.60
2018-12-21T09:15:52.252Z,83.57
2018-12-21T09:18:21.617Z,86.30
2018-12-21T09:20:50.836Z,113.53
2018-12-21T09:23:20.040Z,172.43
2018-12-21T09:25:48.686Z,195.90
2018-12-21T09:28:17.321Z,153.67
2018-12-21T09:30:45.935Z,129.70
2018-12-21T09:33:14.616Z,130.10
2018-12-21T09:35:43.408Z,117.73
2018-12-21T09:38:12.260Z,115.87
2018-12-21T09:40:42.053Z,114.23
2018-12-21T09:43:10.758Z,110.50
2018-12-21T09:45:39.691Z,106.83
2018-12-21T09:48:08.571Z,91.57
2018-12-21T09:50:37.222Z,100.53
2018-12-21T09:53:06.334Z,83.27
2018-12-21T09:55:35.007Z,75.37
2018-12-21T09:58:03.687Z,67.87
2018-12-21T10:00:32.402Z,76.67
2018-12-21T10:03:01.091Z,80.97
2018-12-21T10:05:29.732Z,74.70
2018-12-21T10:07:58.547Z,74.60
2018-12-21T10:10:27.435Z,67.77
2018-12-21T10:12:56.643Z,68.33
2018-12-21T10:15:29.596Z,68.57
2018-12-21T10:17:58.257Z,62.13
2018-12-21T10:20:27.063Z,65.17
2018-12-21T10:22:55.692Z,62.33
2018-12-21T10:25:24.352Z,62.00
2018-12-21T10:27:53.006Z,62.77
2018-12-21T10:30:22.264Z,68.13
2018-12-21T10:32:50.993Z,69.93
2018-12-21T10:35:19.701Z,71.17
2018-12-21T10:37:48.469Z,70.17
2018-12-21T10:40:17.134Z,63.67
2018-12-21T10:42:45.811Z,71.97
2018-12-21T10:45:14.590Z,66.90
2018-12-21T10:47:43.355Z,63.77
2018-12-21T10:50:12.560Z,72.17
2018-12-21T10:52:42.139Z,64.90
2018-12-21T10:55:10.958Z,68.73
2018-12-21T10:57:39.669Z,67.57
2018-12-21T11:00:11.065Z,74.20
2018-12-21T11:02:39.932Z,65.40
2018-12-21T11:05:08.910Z,67.97
2018-12-21T11:07:37.539Z,76.60
2018-12-21T11:10:09.488Z,75.97
2018-12-21T11:12:38.912Z,73.03
2018-12-21T11:15:08.110Z,70.80
2018-12-21T11:17:37.541Z,67.87
2018-12-21T11:20:07.743Z,62.80
2018-12-21T11:22:36.336Z,66.90
2018-12-21T11:25:07.960Z,72.20
2018-12-21T11:27:37.736Z,62.53
2018-12-21T11:30:07.220Z,66.40
2018-12-21T11:32:36.560Z,64.67
2018-12-21T11:35:05.405Z,60.17
2018-12-21T11:37:34.058Z,71.13
2018-12-21T11:40:03.336Z,66.30
2018-12-21T11:42:32.107Z,68.33
2018-12-21T11:45:01.334Z,72.83
2018-12-21T11:47:30.010Z,70.00
2018-12-21T11:49:59.299Z,63.07
2018-12-21T11:52:27.953Z,62.50
2018-12-21T11:54:56.561Z,65.43
2018-12-21T11:57:25.362Z,65.97
2018-12-21T11:59:55.167Z,60.33
2018-12-21T12:02:23.980Z,64.30
2018-12-21T12:04:52.625Z,66.50
2018-12-21T12:07:21.829Z,75.83
2018-12-21T12:09:50.975Z,64.40
2018-12-21T12:12:20.366Z,60.40
2018-12-21T12:14:49.141Z,70.27
2018-12-21T12:17:18.329Z,70.40
2018-12-21T12:19:47.217Z,65.40
2018-12-21T12:22:15.873Z,63.73
2018-12-21T12:24:52.572Z,64.63
2018-12-21T12:27:16.537Z,65.87
2018-12-21T12:29:45.410Z,65.87
2018-12-21T12:32:14.141Z,59.40
2018-12-21T12:34:42.839Z,61.07
2018-12-21T12:37:11.471Z,64.83
2018-12-21T12:39:40.824Z,69.93
2018-12-21T12:42:09.493Z,69.00
2018-12-21T12:44:38.189Z,70.67
2018-12-21T12:47:07.414Z,74.23
2018-12-21T12:49:36.190Z,65.93
2018-12-21T12:52:04.862Z,71.27
2018-12-21T12:54:34.218Z,74.67
2018-12-21T12:57:03.148Z,67.30
2018-12-21T12:59:32.735Z,70.43
2018-12-21T13:02:01.522Z,70.30
2018-12-21T13:04:30.254Z,71.83
2018-12-21T13:06:59.088Z,74.73
2018-12-21T13:09:27.702Z,75.77
2018-12-21T13:11:56.563Z,65.80
2018-12-21T13:14:25.377Z,64.90
2018-12-21T13:16:54.073Z,69.77
2018-12-21T13:19:23.469Z,68.23
2018-12-21T13:21:52.208Z,69.97
2018-12-21T13:24:20.865Z,73.30
2018-12-21T13:26:50.103Z,70.60
2018-12-21T13:29:19.519Z,80.30
2018-12-21T13:31:48.387Z,70.83
2018-12-21T13:34:17.850Z,69.13
2018-12-21T13:36:46.488Z,74.70
2018-12-21T13:39:16.130Z,74.57
2018-12-21T13:41:45.417Z,75.77
2018-12-21T13:44:14.132Z,76.43
2018-12-21T13:46:43.555Z,76.33
2018-12-21T13:49:13.096Z,74.97
2018-12-21T13:51:42.264Z,67.07
2018-12-21T13:54:12.029Z,76.57
2018-12-21T13:56:40.723Z,79.83
2018-12-21T13:59:09.517Z,78.37
2018-12-21T14:01:38.256Z,73.70
2018-12-21T14:04:07.440Z,86.60
2018-12-21T14:06:36.166Z,80.17
2018-12-21T14:09:07.050Z,72.83
2018-12-21T14:11:36.129Z,81.30
2018-12-21T14:14:05.362Z,79.80
2018-12-21T14:16:36.510Z,85.27
2018-12-21T14:19:05.253Z,80.57
2018-12-21T14:21:33.895Z,79.83
2018-12-21T14:24:02.752Z,84.07
2018-12-21T14:26:31.387Z,79.63
2018-12-21T14:29:00.289Z,86.63
2018-12-21T14:31:29.784Z,87.13
2018-12-21T14:33:58.649Z,82.47
2018-12-21T14:36:27.311Z,77.93
2018-12-21T14:38:56.644Z,82.93
2018-12-21T14:41:25.590Z,88.33
2018-12-21T14:43:55.031Z,87.50
2018-12-21T14:46:23.857Z,82.47
2018-12-21T14:48:52.568Z,86.53
2018-12-21T14:51:21.217Z,83.40
2018-12-21T14:53:49.941Z,82.00
2018-12-21T14:56:18.705Z,91.70
2018-12-21T14:58:47.327Z,88.07
2018-12-21T15:01:16.822Z,84.07
2018-12-21T15:03:45.480Z,83.53
2018-12-21T15:06:14.116Z,89.73
2018-12-21T15:08:42.940Z,93.30
2018-12-21T15:11:11.693Z,86.63
2018-12-21T15:13:40.304Z,85.57
2018-12-21T15:16:09.004Z,96.10
2018-12-21T15:18:37.882Z,93.60
2018-12-21T15:21:06.531Z,98.90
2018-12-21T15:23:35.764Z,95.43
2018-12-21T15:26:05.444Z,88.53
2018-12-21T15:28:34.119Z,94.67
2018-12-21T15:31:02.884Z,97.67
2018-12-21T15:33:31.617Z,91.07
2018-12-21T15:36:00.437Z,95.60
2018-12-21T15:38:29.681Z,99.20
2018-12-21T15:40:58.307Z,96.50
2018-12-21T15:43:26.909Z,97.93
2018-12-21T15:45:55.771Z,85.93
2018-12-21T15:48:24.389Z,98.20
2018-12-21T15:50:53.107Z,90.20
2018-12-21T15:53:21.838Z,95.37
2018-12-21T15:55:54.884Z,90.70
2018-12-21T15:58:21.773Z,97.10
2018-12-21T16:00:50.419Z,103.23
2018-12-21T16:03:19.173Z,88.33
2018-12-21T16:05:47.948Z,93.70
2018-12-21T16:08:16.714Z,90.20
2018-12-21T16:10:45.634Z,95.63
2018-12-21T16:13:14.304Z,102.00
2018-12-21T16:15:42.949Z,93.47
2018-12-21T16:18:11.559Z,94.43
2018-12-21T16:20:40.279Z,103.00
2018-12-21T16:23:09.005Z,97.20
2018-12-21T16:25:38.566Z,93.53
2018-12-21T16:28:07.288Z,103.53
2018-12-21T16:30:35.869Z,97.87
2018-12-21T16:33:04.627Z,86.70
2018-12-21T16:35:33.349Z,99.50
2018-12-21T16:38:02.542Z,95.30
2018-12-21T16:40:31.802Z,94.60
2018-12-21T16:43:01.015Z,103.27
2018-12-21T16:45:29.690Z,100.47
2018-12-21T16:47:59.101Z,99.00
2018-12-21T16:50:27.754Z,102.70
2018-12-21T16:52:56.495Z,103.53
2018-12-21T16:55:26.037Z,111.50
2018-12-21T16:57:54.768Z,102.47
2018-12-21T17:00:23.636Z,103.23
2018-12-21T17:02:52.453Z,107.07
2018-12-21T17:05:21.132Z,103.93
2018-12-21T17:07:50.374Z,94.03
2018-12-21T17:10:21.688Z,104.00
2018-12-21T17:12:50.627Z,104.83
2018-12-21T17:15:19.600Z,97.97
2018-12-21T17:17:48.332Z,100.63
2018-12-21T17:20:16.995Z,102.90
2018-12-21T17:22:45.632Z,96.83
2018-12-21T17:25:15.270Z,99.13
2018-12-21T17:27:44.878Z,102.43
2018-12-21T17:30:14.185Z,107.27
2018-12-21T17:32:42.943Z,96.87
2018-12-21T17:35:11.729Z,99.97
2018-12-21T17:37:40.949Z,94.53
2018-12-21T17:40:11.503Z,92.63
2018-12-21T17:42:40.119Z,89.30
2018-12-21T17:45:11.188Z,89.90
2018-12-21T17:47:39.856Z,93.37
2018-12-21T17:50:10.173Z,96.63
2018-12-21T17:52:38.872Z,86.73
2018-12-21T17:55:09.073Z,84.57
2018-12-21T17:57:37.703Z,85.37
2018-12-21T18:00:12.296Z,82.57
2018-12-21T18:02:41.318Z,81.47
2018-12-21T18:05:09.912Z,71.17
2018-12-21T18:07:38.570Z,80.00
2018-12-21T18:10:08.807Z,77.37
2018-12-21T18:12:37.458Z,74.17
2018-12-21T18:15:07.236Z,78.27
2018-12-21T18:17:35.890Z,74.40
2018-12-21T18:20:06.387Z,71.20
2018-12-21T18:22:35.114Z,69.43
2018-12-21T18:25:08.110Z,70.77
2018-12-21T18:27:37.305Z,79.13
2018-12-21T18:30:12.009Z,69.10
2018-12-21T18:32:41.216Z,82.37
2018-12-21T18:35:15.622Z,77.17
2018-12-21T18:37:54.625Z,71.43
2018-12-21T18:40:23.978Z,66.97
2018-12-21T18:42:52.786Z,71.63
2018-12-21T18:45:21.426Z,83.90
2018-12-21T18:47:50.382Z,103.53
2018-12-21T18:50:19.637Z,101.87
2018-12-21T18:52:48.894Z,77.37
2018-12-21T18:55:18.178Z,70.70
2018-12-21T18:57:46.775Z,74.60
2018-12-21T19:00:16.856Z,95.00
2018-12-21T19:02:45.652Z,76.13
2018-12-21T19:05:14.422Z,77.53
2018-12-21T19:07:44.323Z,72.90
2018-12-21T19:10:12.968Z,83.33
2018-12-21T19:12:41.673Z,99.10
2018-12-21T19:15:12.067Z,83.13
2018-12-21T19:17:40.689Z,66.73
2018-12-21T19:20:12.305Z,76.50
2018-12-21T19:22:41.109Z,77.47
2018-12-21T19:25:11.276Z,75.67
2018-12-21T19:27:39.961Z,71.33
2018-12-21T19:30:11.421Z,70.63
2018-12-21T19:32:41.646Z,82.03
2018-12-21T19:35:11.530Z,74.73
2018-12-21T19:37:40.176Z,79.83
2018-12-21T19:40:10.880Z,76.40
2018-12-21T19:42:40.043Z,81.87
2018-12-21T19:45:11.198Z,76.27
2018-12-21T19:47:40.077Z,82.97
2018-12-21T19:50:10.413Z,78.80
2018-12-21T19:52:40.178Z,81.83
2018-12-21T19:55:19.084Z,91.20
2018-12-21T19:57:48.022Z,84.97
2018-12-21T20:00:16.934Z,84.03
2018-12-21T20:02:45.506Z,81.63
2018-12-21T20:05:14.222Z,87.70
2018-12-21T20:07:43.541Z,86.83
2018-12-21T20:10:12.709Z,79.00
2018-12-21T20:12:41.374Z,87.40
2018-12-21T20:15:10.069Z,82.93
2018-12-21T20:17:38.692Z,92.53
2018-12-21T20:20:09.229Z,89.13
2018-12-21T20:22:37.838Z,87.73
2018-12-21T20:25:08.844Z,89.40
2018-12-21T20:27:39.519Z,93.27
2018-12-21T20:30:11.175Z,86.97
2018-12-21T20:32:40.107Z,87.47
2018-12-21T20:35:09.286Z,79.90
2018-12-21T20:37:38.289Z,95.73
2018-12-21T20:40:08.550Z,91.63
2018-12-21T20:42:38.083Z,82.87
2018-12-21T20:45:08.603Z,82.53
2018-12-21T20:47:39.495Z,76.23
2018-12-21T20:50:11.929Z,78.53
2018-12-21T20:52:40.719Z,80.50
2018-12-21T20:55:09.757Z,85.57
2018-12-21T20:57:40.227Z,77.23
2018-12-21T21:00:12.746Z,79.97
2018-12-21T21:02:41.339Z,70.43
2018-12-21T21:05:10.331Z,84.30
2018-12-21T21:07:38.939Z,67.10
2018-12-21T21:10:10.982Z,83.33
2018-12-21T21:12:40.043Z,76.43
2018-12-21T21:15:10.769Z,71.17
2018-12-21T21:17:39.443Z,75.63
2018-12-21T21:20:10.934Z,70.60
2018-12-21T21:22:39.641Z,70.43
2018-12-21T21:25:08.264Z,76.87
2018-12-21T21:27:36.959Z,72.30
2018-12-21T21:30:09.160Z,71.23
2018-12-21T21:32:37.899Z,73.37
2018-12-21T21:35:07.081Z,75.00
2018-12-21T21:37:37.399Z,74.10
2018-12-21T21:40:09.087Z,74.60
2018-12-21T21:42:37.775Z,73.10
2018-12-21T21:45:07.190Z,69.97
2018-12-21T21:47:36.035Z,70.17
2018-12-21T21:50:05.555Z,79.27
2018-12-21T21:52:34.279Z,68.27
2018-12-21T21:55:03.750Z,63.63
2018-12-21T21:57:39.144Z,70.47
2018-12-21T22:00:03.310Z,73.93
2018-12-21T22:02:31.896Z,68.60
2018-12-21T22:05:00.534Z,61.60
2018-12-21T22:07:29.281Z,67.37
2018-12-21T22:09:57.911Z,80.33
2018-12-21T22:12:26.615Z,64.77
2018-12-21T22:14:55.275Z,70.00
2018-12-21T22:17:24.151Z,74.47
2018-12-21T22:19:52.831Z,66.93
2018-12-21T22:22:21.526Z,74.60
2018-12-21T22:24:50.395Z,68.90
2018-12-21T22:27:19.148Z,74.63
2018-12-21T22:29:48.698Z,66.30
2018-12-21T22:32:17.350Z,72.73
2018-12-21T22:34:46.238Z,72.50
2018-12-21T22:37:14.845Z,73.13
2018-12-21T22:39:43.510Z,63.07
2018-12-21T22:42:12.140Z,76.67
2018-12-21T22:44:40.787Z,68.53
2018-12-21T22:47:09.358Z,67.83
2018-12-21T22:49:38.732Z,68.40
2018-12-21T22:52:07.469Z,68.60
2018-12-21T22:54:36.367Z,65.77
2018-12-21T22:57:05.000Z,69.90
2018-12-21T22:59:33.572Z,74.90
2018-12-21T23:02:02.222Z,64.17
2018-12-21T23:04:30.868Z,66.83
2018-12-21T23:06:59.441Z,68.40
2018-12-21T23:09:28.018Z,76.13
2018-12-21T23:11:56.638Z,68.20
2018-12-21T23:14:25.193Z,71.80
2018-12-21T23:16:53.903Z,66.60
2018-12-21T23:19:22.525Z,67.67
2018-12-21T23:21:51.132Z,70.27
2018-12-21T23:24:19.734Z,63.23
2018-12-21T23:26:48.375Z,63.03
2018-12-21T23:29:16.970Z,64.87
2018-12-21T23:31:45.645Z,66.00
2018-12-21T23:34:14.261Z,68.80
2018-12-21T23:36:42.939Z,76.87
2018-12-21T23:39:11.552Z,68.40
2018-12-21T23:41:40.398Z,67.63
2018-12-21T23:44:08.962Z,67.70
2018-12-21T23:46:37.542Z,67.47
2018-12-21T23:49:06.194Z,71.03
2018-12-21T23:51:34.809Z,75.87
2018-12-21T23:54:03.416Z,63.37
2018-12-21T23:56:32.028Z,60.00
2018-12-21T23:59:00.605Z,57.77
